RYR8KQ EPWR-EGNM
Flight info
| Callsign | RYR8KQ |
|---|---|
| Flight time | 1h 48m |
| Altitude | 34000 |
| Route | ULGIL Z348 RENDO DCT OSTRA DCT KUMER DCT RKN DCT SPY DCT RAVLO Y70 GOLES |
| Aircraft | B738/M-SDE2E3FGHIRWXY/LB1 |
Departure
| Time | 2026-04-30 07:52 |
|---|---|
| Airport | Copernicus Wrocław Airport (EPWR) |
Arrival
| Time | 2026-04-30 09:40 |
|---|---|
| Airport | Leeds Bradford Airport (EGNM) |
| Time | Latitude | Longitude | Altitude | Speed | Heading |
|---|---|---|---|---|---|
| 2026-04-30 07:33 | 51.10822 | 16.88151 | 402 ft | 0 kts | 26° |
| 2026-04-30 07:41 | 51.10822 | 16.88150 | 402 ft | 1 kts | 26° |
| 2026-04-30 07:41 | 51.10800 | 16.88133 | 402 ft | 4 kts | 26° |
| 2026-04-30 07:41 | 51.10780 | 16.88118 | 401 ft | 4 kts | 18° |
| 2026-04-30 07:41 | 51.10757 | 16.88117 | 400 ft | 4 kts | 324° |
| 2026-04-30 07:42 | 51.10742 | 16.88146 | 402 ft | 2 kts | 296° |
| 2026-04-30 07:42 | 51.10741 | 16.88148 | 402 ft | 2 kts | 296° |
| 2026-04-30 07:45 | 51.10751 | 16.88116 | 400 ft | 9 kts | 296° |
| 2026-04-30 07:45 | 51.10797 | 16.87968 | 399 ft | 20 kts | 296° |
| 2026-04-30 07:45 | 51.10863 | 16.87749 | 401 ft | 25 kts | 296° |
| 2026-04-30 07:45 | 51.10944 | 16.87483 | 401 ft | 26 kts | 289° |
| 2026-04-30 07:46 | 51.10881 | 16.87368 | 402 ft | 14 kts | 204° |
| 2026-04-30 07:46 | 51.10791 | 16.87301 | 402 ft | 15 kts | 206° |
| 2026-04-30 07:46 | 51.10694 | 16.87242 | 402 ft | 15 kts | 173° |
| 2026-04-30 07:46 | 51.10639 | 16.87376 | 402 ft | 16 kts | 117° |
| 2026-04-30 07:47 | 51.10586 | 16.87542 | 399 ft | 18 kts | 117° |
| 2026-04-30 07:47 | 51.10524 | 16.87735 | 401 ft | 22 kts | 116° |
| 2026-04-30 07:47 | 51.10454 | 16.87971 | 402 ft | 26 kts | 115° |
| 2026-04-30 07:47 | 51.10364 | 16.88275 | 405 ft | 34 kts | 116° |
| 2026-04-30 07:48 | 51.10246 | 16.88652 | 403 ft | 42 kts | 116° |
| 2026-04-30 07:48 | 51.10109 | 16.89097 | 402 ft | 45 kts | 116° |
| 2026-04-30 07:48 | 51.10001 | 16.89450 | 401 ft | 28 kts | 116° |
| 2026-04-30 07:48 | 51.09954 | 16.89602 | 401 ft | 14 kts | 116° |
| 2026-04-30 07:49 | 51.09934 | 16.89730 | 402 ft | 11 kts | 111° |
| 2026-04-30 07:49 | 51.09923 | 16.89749 | 400 ft | 0 kts | 148° |
| 2026-04-30 07:49 | 51.09912 | 16.89744 | 402 ft | 2 kts | 213° |
| 2026-04-30 07:49 | 51.09911 | 16.89723 | 402 ft | 2 kts | 282° |
| 2026-04-30 07:50 | 51.09921 | 16.89703 | 400 ft | 0 kts | 302° |
| 2026-04-30 07:51 | 51.09945 | 16.89637 | 399 ft | 33 kts | 298° |
| 2026-04-30 07:51 | 51.10180 | 16.88871 | 402 ft | 119 kts | 296° |
| 2026-04-30 07:51 | 51.10642 | 16.87369 | 639 ft | 171 kts | 296° |
| 2026-04-30 07:52 | 51.11154 | 16.85734 | 1230 ft | 162 kts | 297° |
| 2026-04-30 07:52 | 51.11661 | 16.84061 | 1791 ft | 165 kts | 297° |
| 2026-04-30 07:52 | 51.12160 | 16.82418 | 2540 ft | 171 kts | 297° |
| 2026-04-30 07:52 | 51.12577 | 16.80469 | 2925 ft | 203 kts | 275° |
| 2026-04-30 07:53 | 51.12133 | 16.78228 | 3164 ft | 233 kts | 231° |
| 2026-04-30 07:53 | 51.10730 | 16.76825 | 3619 ft | 253 kts | 196° |
| 2026-04-30 07:53 | 51.09030 | 16.75806 | 4122 ft | 267 kts | 217° |
| 2026-04-30 07:53 | 51.07910 | 16.73500 | 4846 ft | 269 kts | 251° |
| 2026-04-30 07:54 | 51.07326 | 16.70662 | 5622 ft | 273 kts | 253° |
| 2026-04-30 07:54 | 51.06632 | 16.67801 | 6277 ft | 281 kts | 249° |
| 2026-04-30 07:54 | 51.05793 | 16.64959 | 6957 ft | 288 kts | 245° |
| 2026-04-30 07:54 | 51.04835 | 16.62131 | 7655 ft | 292 kts | 242° |
| 2026-04-30 07:55 | 51.03817 | 16.59361 | 8355 ft | 295 kts | 241° |
| 2026-04-30 07:55 | 51.02750 | 16.56558 | 8909 ft | 298 kts | 240° |
| 2026-04-30 07:55 | 51.01664 | 16.53731 | 9036 ft | 298 kts | 240° |
| 2026-04-30 07:55 | 51.00840 | 16.50761 | 9120 ft | 293 kts | 265° |
| 2026-04-30 07:56 | 51.00916 | 16.47585 | 9426 ft | 287 kts | 287° |
| 2026-04-30 07:56 | 51.01452 | 16.44528 | 10067 ft | 290 kts | 292° |
| 2026-04-30 07:56 | 51.02077 | 16.41462 | 10736 ft | 293 kts | 293° |
| 2026-04-30 07:56 | 51.02740 | 16.38286 | 10946 ft | 314 kts | 293° |
| 2026-04-30 07:57 | 51.03426 | 16.34970 | 11145 ft | 333 kts | 292° |
| 2026-04-30 07:57 | 51.04145 | 16.31416 | 11620 ft | 341 kts | 292° |
| 2026-04-30 07:57 | 51.04864 | 16.27798 | 12264 ft | 345 kts | 292° |
| 2026-04-30 07:57 | 51.05584 | 16.24146 | 12955 ft | 348 kts | 292° |
| 2026-04-30 07:58 | 51.06307 | 16.20457 | 13634 ft | 351 kts | 292° |
| 2026-04-30 07:58 | 51.07036 | 16.16725 | 14317 ft | 355 kts | 292° |
| 2026-04-30 07:58 | 51.07772 | 16.12954 | 14930 ft | 359 kts | 292° |
| 2026-04-30 07:58 | 51.08518 | 16.09130 | 15555 ft | 364 kts | 292° |
| 2026-04-30 07:59 | 51.09270 | 16.05266 | 16164 ft | 368 kts | 292° |
| 2026-04-30 07:59 | 51.10004 | 16.01342 | 16810 ft | 374 kts | 289° |
| 2026-04-30 07:59 | 51.10453 | 15.97221 | 17439 ft | 382 kts | 282° |
| 2026-04-30 08:00 | 51.10962 | 15.88687 | 18637 ft | 392 kts | 281° |
| 2026-04-30 08:00 | 51.11211 | 15.84399 | 19157 ft | 396 kts | 281° |
| 2026-04-30 08:00 | 51.11489 | 15.80021 | 19662 ft | 399 kts | 282° |
| 2026-04-30 08:00 | 51.11788 | 15.75603 | 20189 ft | 403 kts | 282° |
| 2026-04-30 08:01 | 51.12100 | 15.71154 | 20705 ft | 406 kts | 283° |
| 2026-04-30 08:01 | 51.12416 | 15.66660 | 21212 ft | 410 kts | 283° |
| 2026-04-30 08:01 | 51.12733 | 15.62129 | 21703 ft | 414 kts | 283° |
| 2026-04-30 08:01 | 51.13159 | 15.57584 | 22193 ft | 415 kts | 287° |
| 2026-04-30 08:02 | 51.14320 | 15.48542 | 23162 ft | 420 kts | 290° |
| 2026-04-30 08:02 | 51.14935 | 15.43971 | 23632 ft | 424 kts | 289° |
| 2026-04-30 08:03 | 51.16144 | 15.34690 | 24471 ft | 431 kts | 289° |
| 2026-04-30 08:03 | 51.17325 | 15.25271 | 25264 ft | 436 kts | 289° |
| 2026-04-30 08:03 | 51.17914 | 15.20516 | 25653 ft | 439 kts | 289° |
| 2026-04-30 08:04 | 51.18506 | 15.15724 | 26011 ft | 442 kts | 289° |
| 2026-04-30 08:04 | 51.19100 | 15.10906 | 26390 ft | 444 kts | 289° |
| 2026-04-30 08:04 | 51.19697 | 15.06052 | 26764 ft | 447 kts | 289° |
| 2026-04-30 08:04 | 51.20274 | 15.01304 | 27112 ft | 450 kts | 288° |
| 2026-04-30 08:05 | 51.20739 | 14.96330 | 27464 ft | 456 kts | 284° |
| 2026-04-30 08:05 | 51.21096 | 14.91289 | 27804 ft | 460 kts | 283° |
| 2026-04-30 08:05 | 51.21310 | 14.87912 | 28031 ft | 462 kts | 283° |
| 2026-04-30 08:05 | 51.21629 | 14.82806 | 28375 ft | 464 kts | 283° |
| 2026-04-30 08:06 | 51.21960 | 14.77685 | 28697 ft | 466 kts | 283° |
| 2026-04-30 08:06 | 51.22305 | 14.72530 | 29018 ft | 468 kts | 283° |
| 2026-04-30 08:06 | 51.22661 | 14.67358 | 29321 ft | 471 kts | 283° |
| 2026-04-30 08:06 | 51.23019 | 14.62154 | 29632 ft | 473 kts | 283° |
| 2026-04-30 08:07 | 51.23377 | 14.56912 | 29929 ft | 475 kts | 283° |
| 2026-04-30 08:07 | 51.23732 | 14.51650 | 30218 ft | 478 kts | 283° |
| 2026-04-30 08:07 | 51.24085 | 14.46378 | 30474 ft | 480 kts | 283° |
| 2026-04-30 08:07 | 51.24438 | 14.41072 | 30721 ft | 482 kts | 283° |
| 2026-04-30 08:08 | 51.24791 | 14.35726 | 30965 ft | 484 kts | 283° |
| 2026-04-30 08:08 | 51.25141 | 14.30379 | 31220 ft | 485 kts | 283° |
| 2026-04-30 08:08 | 51.25488 | 14.25022 | 31553 ft | 484 kts | 283° |
| 2026-04-30 08:08 | 51.25828 | 14.19744 | 31905 ft | 483 kts | 283° |
| 2026-04-30 08:09 | 51.26169 | 14.14414 | 32244 ft | 482 kts | 283° |
| 2026-04-30 08:09 | 51.26509 | 14.09091 | 32546 ft | 482 kts | 283° |
| 2026-04-30 08:09 | 51.26846 | 14.03769 | 32834 ft | 481 kts | 283° |
| 2026-04-30 08:09 | 51.27182 | 13.98441 | 33162 ft | 480 kts | 283° |
| 2026-04-30 08:10 | 51.27513 | 13.93143 | 33479 ft | 480 kts | 283° |
| 2026-04-30 08:10 | 51.27829 | 13.87847 | 33785 ft | 480 kts | 281° |
| 2026-04-30 08:10 | 51.28017 | 13.82497 | 34063 ft | 482 kts | 279° |
| 2026-04-30 08:10 | 51.28108 | 13.77146 | 34355 ft | 482 kts | 278° |
| 2026-04-30 08:11 | 51.28159 | 13.71782 | 34522 ft | 484 kts | 277° |
| 2026-04-30 08:11 | 51.28262 | 13.61041 | 34505 ft | 486 kts | 277° |
| 2026-04-30 08:12 | 51.28395 | 13.50312 | 34494 ft | 479 kts | 278° |
| 2026-04-30 08:12 | 51.28542 | 13.39659 | 34500 ft | 478 kts | 278° |
| 2026-04-30 08:13 | 51.28683 | 13.29058 | 34510 ft | 477 kts | 277° |
| 2026-04-30 08:13 | 51.28811 | 13.18448 | 34506 ft | 477 kts | 277° |
| 2026-04-30 08:14 | 51.28929 | 13.07855 | 34507 ft | 478 kts | 277° |
| 2026-04-30 08:14 | 51.29038 | 12.97189 | 34510 ft | 478 kts | 277° |
| 2026-04-30 08:15 | 51.29437 | 12.86718 | 34503 ft | 470 kts | 287° |
| 2026-04-30 08:15 | 51.30657 | 12.76483 | 34509 ft | 468 kts | 288° |
| 2026-04-30 08:16 | 51.31911 | 12.66354 | 34507 ft | 461 kts | 288° |
| 2026-04-30 08:16 | 51.33108 | 12.56338 | 34514 ft | 458 kts | 287° |
| 2026-04-30 08:17 | 51.34269 | 12.46353 | 34529 ft | 456 kts | 287° |
| 2026-04-30 08:17 | 51.35413 | 12.36369 | 34534 ft | 456 kts | 287° |
| 2026-04-30 08:18 | 51.36546 | 12.26394 | 34537 ft | 456 kts | 287° |
| 2026-04-30 08:18 | 51.37673 | 12.16409 | 34532 ft | 456 kts | 286° |
| 2026-04-30 08:19 | 51.38791 | 12.06416 | 34536 ft | 456 kts | 286° |
| 2026-04-30 08:19 | 51.39903 | 11.96399 | 34527 ft | 457 kts | 286° |
| 2026-04-30 08:20 | 51.41008 | 11.86362 | 34527 ft | 458 kts | 286° |
| 2026-04-30 08:20 | 51.42101 | 11.76354 | 34525 ft | 459 kts | 285° |
| 2026-04-30 08:21 | 51.43191 | 11.66284 | 34521 ft | 459 kts | 285° |
| 2026-04-30 08:21 | 51.44276 | 11.56181 | 34519 ft | 460 kts | 285° |
| 2026-04-30 08:22 | 51.45352 | 11.46078 | 34511 ft | 460 kts | 285° |
| 2026-04-30 08:22 | 51.46420 | 11.35956 | 34512 ft | 460 kts | 285° |
| 2026-04-30 08:23 | 51.47478 | 11.25844 | 34510 ft | 460 kts | 285° |
| 2026-04-30 08:23 | 51.48528 | 11.15721 | 34513 ft | 459 kts | 285° |
| 2026-04-30 08:24 | 51.49567 | 11.05610 | 34507 ft | 458 kts | 285° |
| 2026-04-30 08:24 | 51.50596 | 10.95522 | 34503 ft | 458 kts | 284° |
| 2026-04-30 08:25 | 51.51610 | 10.85488 | 34505 ft | 458 kts | 284° |
| 2026-04-30 08:25 | 51.52621 | 10.75395 | 34501 ft | 457 kts | 284° |
| 2026-04-30 08:26 | 51.53623 | 10.65305 | 34505 ft | 457 kts | 284° |
| 2026-04-30 08:26 | 51.55031 | 10.55425 | 34505 ft | 452 kts | 291° |
| 2026-04-30 08:27 | 51.56754 | 10.45731 | 34501 ft | 452 kts | 291° |
| 2026-04-30 08:27 | 51.58475 | 10.36018 | 34504 ft | 452 kts | 291° |
| 2026-04-30 08:28 | 51.60138 | 10.26335 | 34500 ft | 453 kts | 290° |
| 2026-04-30 08:28 | 51.61786 | 10.16559 | 34505 ft | 454 kts | 290° |
| 2026-04-30 08:29 | 51.63427 | 10.06737 | 34504 ft | 454 kts | 290° |
| 2026-04-30 08:29 | 51.65051 | 9.96963 | 34495 ft | 455 kts | 290° |
| 2026-04-30 08:30 | 51.66671 | 9.87159 | 34502 ft | 455 kts | 290° |
| 2026-04-30 08:30 | 51.68291 | 9.77303 | 34498 ft | 455 kts | 290° |
| 2026-04-30 08:31 | 51.69903 | 9.67442 | 34494 ft | 455 kts | 289° |
| 2026-04-30 08:31 | 51.71506 | 9.57580 | 34499 ft | 455 kts | 289° |
| 2026-04-30 08:32 | 51.73101 | 9.47707 | 34495 ft | 454 kts | 289° |
| 2026-04-30 08:32 | 51.74686 | 9.37833 | 34484 ft | 454 kts | 289° |
| 2026-04-30 08:33 | 51.76263 | 9.27955 | 34492 ft | 454 kts | 289° |
| 2026-04-30 08:33 | 51.77831 | 9.18077 | 34482 ft | 454 kts | 288° |
| 2026-04-30 08:34 | 51.79390 | 9.08191 | 34488 ft | 454 kts | 288° |
| 2026-04-30 08:34 | 51.80940 | 8.98311 | 34483 ft | 454 kts | 288° |
| 2026-04-30 08:35 | 51.82484 | 8.88402 | 34472 ft | 454 kts | 288° |
| 2026-04-30 08:35 | 51.84017 | 8.78506 | 34482 ft | 453 kts | 288° |
| 2026-04-30 08:36 | 51.85536 | 8.68636 | 34483 ft | 453 kts | 288° |
| 2026-04-30 08:36 | 51.87051 | 8.58736 | 34481 ft | 452 kts | 288° |
| 2026-04-30 08:37 | 51.88547 | 8.48900 | 34481 ft | 452 kts | 287° |
| 2026-04-30 08:37 | 51.90051 | 8.38953 | 34477 ft | 452 kts | 287° |
| 2026-04-30 08:38 | 51.91528 | 8.29120 | 34478 ft | 452 kts | 287° |
| 2026-04-30 08:38 | 51.93006 | 8.19216 | 34478 ft | 452 kts | 287° |
| 2026-04-30 08:39 | 51.94476 | 8.09307 | 34480 ft | 452 kts | 287° |
| 2026-04-30 08:39 | 51.95938 | 7.99394 | 34474 ft | 452 kts | 287° |
| 2026-04-30 08:40 | 51.97390 | 7.89480 | 34479 ft | 452 kts | 286° |
| 2026-04-30 08:40 | 51.98835 | 7.79546 | 34477 ft | 452 kts | 286° |
| 2026-04-30 08:41 | 52.00270 | 7.69621 | 34482 ft | 452 kts | 286° |
| 2026-04-30 08:41 | 52.01689 | 7.59744 | 34477 ft | 452 kts | 286° |
| 2026-04-30 08:42 | 52.03109 | 7.49798 | 34482 ft | 452 kts | 286° |
| 2026-04-30 08:42 | 52.04518 | 7.39859 | 34473 ft | 452 kts | 285° |
| 2026-04-30 08:43 | 52.05921 | 7.29904 | 34473 ft | 451 kts | 285° |
| 2026-04-30 08:43 | 52.07312 | 7.19965 | 34472 ft | 451 kts | 285° |
| 2026-04-30 08:44 | 52.08696 | 7.10009 | 34467 ft | 451 kts | 285° |
| 2026-04-30 08:44 | 52.10070 | 7.00060 | 34468 ft | 451 kts | 285° |
| 2026-04-30 08:45 | 52.11437 | 6.90094 | 34464 ft | 451 kts | 285° |
| 2026-04-30 08:45 | 52.12786 | 6.80202 | 34467 ft | 451 kts | 285° |
| 2026-04-30 08:46 | 52.14477 | 6.70421 | 34469 ft | 448 kts | 292° |
| 2026-04-30 08:46 | 52.16637 | 6.60910 | 34454 ft | 448 kts | 293° |
| 2026-04-30 08:47 | 52.18816 | 6.51402 | 34451 ft | 448 kts | 292° |
| 2026-04-30 08:47 | 52.20947 | 6.41854 | 34449 ft | 448 kts | 292° |
| 2026-04-30 08:48 | 52.23049 | 6.32273 | 34440 ft | 448 kts | 292° |
| 2026-04-30 08:48 | 52.25129 | 6.22723 | 34439 ft | 449 kts | 292° |
| 2026-04-30 08:49 | 52.27212 | 6.13115 | 34434 ft | 449 kts | 292° |
| 2026-04-30 08:49 | 52.29290 | 6.03491 | 34431 ft | 449 kts | 291° |
| 2026-04-30 08:50 | 52.31363 | 5.93844 | 34434 ft | 450 kts | 291° |
| 2026-04-30 08:50 | 52.33430 | 5.84180 | 34440 ft | 450 kts | 291° |
| 2026-04-30 08:51 | 52.35487 | 5.74516 | 34454 ft | 450 kts | 291° |
| 2026-04-30 08:51 | 52.37192 | 5.66474 | 34445 ft | 450 kts | 291° |
| 2026-04-30 08:52 | 52.39240 | 5.56770 | 34460 ft | 450 kts | 291° |
| 2026-04-30 08:52 | 52.41277 | 5.47072 | 34451 ft | 451 kts | 291° |
| 2026-04-30 08:53 | 52.43311 | 5.37342 | 34453 ft | 451 kts | 290° |
| 2026-04-30 08:53 | 52.45338 | 5.27593 | 34450 ft | 451 kts | 290° |
| 2026-04-30 08:54 | 52.47340 | 5.17922 | 34440 ft | 451 kts | 290° |
| 2026-04-30 08:54 | 52.49345 | 5.08185 | 34442 ft | 450 kts | 290° |
| 2026-04-30 08:55 | 52.51342 | 4.98446 | 34427 ft | 450 kts | 290° |
| 2026-04-30 08:55 | 52.53334 | 4.88684 | 34430 ft | 450 kts | 290° |
| 2026-04-30 08:56 | 52.55392 | 4.78961 | 34427 ft | 450 kts | 291° |
| 2026-04-30 08:56 | 52.57622 | 4.69349 | 34429 ft | 449 kts | 292° |
| 2026-04-30 08:57 | 52.59842 | 4.59797 | 34426 ft | 450 kts | 292° |
| 2026-04-30 08:57 | 52.62041 | 4.50176 | 34417 ft | 449 kts | 291° |
| 2026-04-30 08:58 | 52.64218 | 4.40539 | 34418 ft | 449 kts | 291° |
| 2026-04-30 08:58 | 52.66384 | 4.30898 | 34413 ft | 448 kts | 291° |
| 2026-04-30 08:59 | 52.68542 | 4.21251 | 34412 ft | 448 kts | 291° |
| 2026-04-30 08:59 | 52.70691 | 4.11599 | 34411 ft | 448 kts | 291° |
| 2026-04-30 09:00 | 52.72820 | 4.01992 | 34414 ft | 448 kts | 291° |
| 2026-04-30 09:00 | 52.74955 | 3.92317 | 34408 ft | 449 kts | 290° |
| 2026-04-30 09:01 | 52.77086 | 3.82613 | 34410 ft | 449 kts | 290° |
| 2026-04-30 09:01 | 52.79210 | 3.72899 | 34407 ft | 450 kts | 290° |
| 2026-04-30 09:02 | 52.82384 | 3.58291 | 34413 ft | 451 kts | 290° |
| 2026-04-30 09:02 | 52.84494 | 3.48521 | 34385 ft | 451 kts | 290° |
| 2026-04-30 09:03 | 52.86586 | 3.38787 | 34401 ft | 452 kts | 290° |
| 2026-04-30 09:03 | 52.88699 | 3.28912 | 34402 ft | 452 kts | 289° |
| 2026-04-30 09:04 | 52.90781 | 3.19140 | 34396 ft | 453 kts | 289° |
| 2026-04-30 09:04 | 52.92593 | 3.09159 | 34401 ft | 453 kts | 282° |
| 2026-04-30 09:05 | 52.93897 | 2.98928 | 34397 ft | 453 kts | 281° |
| 2026-04-30 09:05 | 52.95163 | 2.88690 | 34398 ft | 453 kts | 281° |
| 2026-04-30 09:06 | 52.96460 | 2.78537 | 34399 ft | 452 kts | 281° |
| 2026-04-30 09:06 | 52.97779 | 2.68325 | 34397 ft | 452 kts | 281° |
| 2026-04-30 09:07 | 52.99092 | 2.58108 | 34394 ft | 452 kts | 281° |
| 2026-04-30 09:07 | 53.00385 | 2.47973 | 34390 ft | 451 kts | 281° |
| 2026-04-30 09:08 | 53.01677 | 2.37756 | 34391 ft | 450 kts | 281° |
| 2026-04-30 09:08 | 53.02957 | 2.27553 | 34387 ft | 450 kts | 281° |
| 2026-04-30 09:09 | 53.04218 | 2.17440 | 34389 ft | 449 kts | 280° |
| 2026-04-30 09:09 | 53.05479 | 2.07256 | 34389 ft | 448 kts | 280° |
| 2026-04-30 09:10 | 53.06097 | 2.02240 | 34372 ft | 437 kts | 280° |
| 2026-04-30 09:10 | 53.06700 | 1.97345 | 34371 ft | 430 kts | 280° |
| 2026-04-30 09:10 | 53.07883 | 1.87665 | 34342 ft | 425 kts | 280° |
| 2026-04-30 09:11 | 53.08470 | 1.82839 | 34013 ft | 423 kts | 280° |
| 2026-04-30 09:11 | 53.09047 | 1.78074 | 33687 ft | 417 kts | 280° |
| 2026-04-30 09:11 | 53.09608 | 1.73426 | 33351 ft | 413 kts | 279° |
| 2026-04-30 09:11 | 53.10170 | 1.68760 | 32967 ft | 410 kts | 279° |
| 2026-04-30 09:12 | 53.10728 | 1.64104 | 32597 ft | 407 kts | 279° |
| 2026-04-30 09:12 | 53.11278 | 1.59503 | 32251 ft | 403 kts | 279° |
| 2026-04-30 09:12 | 53.11821 | 1.54940 | 31896 ft | 401 kts | 279° |
| 2026-04-30 09:12 | 53.12359 | 1.50404 | 31545 ft | 398 kts | 279° |
| 2026-04-30 09:13 | 53.12887 | 1.45941 | 31200 ft | 396 kts | 279° |
| 2026-04-30 09:13 | 53.13417 | 1.41441 | 30862 ft | 394 kts | 279° |
| 2026-04-30 09:13 | 53.13941 | 1.36981 | 30517 ft | 391 kts | 279° |
| 2026-04-30 09:13 | 53.14461 | 1.32544 | 30123 ft | 389 kts | 279° |
| 2026-04-30 09:14 | 53.14978 | 1.28110 | 29747 ft | 386 kts | 279° |
| 2026-04-30 09:14 | 53.15485 | 1.23749 | 29390 ft | 383 kts | 279° |
| 2026-04-30 09:14 | 53.15989 | 1.19405 | 29037 ft | 380 kts | 279° |
| 2026-04-30 09:14 | 53.16486 | 1.15095 | 28677 ft | 377 kts | 279° |
| 2026-04-30 09:15 | 53.16969 | 1.10901 | 28453 ft | 370 kts | 279° |
| 2026-04-30 09:15 | 53.17455 | 1.06665 | 27990 ft | 371 kts | 279° |
| 2026-04-30 09:15 | 53.17935 | 1.02464 | 27655 ft | 368 kts | 279° |
| 2026-04-30 09:15 | 53.18411 | 0.98284 | 27310 ft | 366 kts | 279° |
| 2026-04-30 09:16 | 53.18884 | 0.94123 | 26964 ft | 364 kts | 279° |
| 2026-04-30 09:16 | 53.19353 | 0.89977 | 26623 ft | 362 kts | 279° |
| 2026-04-30 09:16 | 53.19816 | 0.85874 | 26291 ft | 360 kts | 279° |
| 2026-04-30 09:16 | 53.20275 | 0.81786 | 25950 ft | 358 kts | 279° |
| 2026-04-30 09:17 | 53.20734 | 0.77693 | 25621 ft | 357 kts | 280° |
| 2026-04-30 09:17 | 53.21275 | 0.73713 | 25399 ft | 355 kts | 280° |
| 2026-04-30 09:17 | 53.21744 | 0.69542 | 25191 ft | 371 kts | 277° |
| 2026-04-30 09:17 | 53.22168 | 0.65217 | 24977 ft | 380 kts | 278° |
| 2026-04-30 09:18 | 53.22610 | 0.60910 | 24736 ft | 382 kts | 278° |
| 2026-04-30 09:18 | 53.23077 | 0.56561 | 24498 ft | 379 kts | 278° |
| 2026-04-30 09:18 | 53.23553 | 0.52237 | 24256 ft | 377 kts | 279° |
| 2026-04-30 09:18 | 53.24027 | 0.47941 | 24024 ft | 375 kts | 279° |
| 2026-04-30 09:19 | 53.24496 | 0.43663 | 23754 ft | 373 kts | 278° |
| 2026-04-30 09:19 | 53.24960 | 0.39395 | 23484 ft | 372 kts | 278° |
| 2026-04-30 09:19 | 53.25417 | 0.35139 | 23212 ft | 371 kts | 278° |
| 2026-04-30 09:19 | 53.25869 | 0.30913 | 22941 ft | 369 kts | 278° |
| 2026-04-30 09:20 | 53.26319 | 0.26693 | 22676 ft | 369 kts | 278° |
| 2026-04-30 09:20 | 53.26767 | 0.22484 | 22412 ft | 368 kts | 278° |
| 2026-04-30 09:20 | 53.27214 | 0.18273 | 22146 ft | 367 kts | 278° |
| 2026-04-30 09:20 | 53.27658 | 0.14078 | 21885 ft | 366 kts | 278° |
| 2026-04-30 09:21 | 53.28093 | 0.09950 | 21627 ft | 365 kts | 278° |
| 2026-04-30 09:21 | 53.28535 | 0.05775 | 21375 ft | 363 kts | 279° |
| 2026-04-30 09:21 | 53.29209 | 0.01703 | 21106 ft | 365 kts | 290° |
| 2026-04-30 09:21 | 53.30267 | -0.02157 | 20867 ft | 365 kts | 295° |
| 2026-04-30 09:22 | 53.31397 | -0.05945 | 20622 ft | 364 kts | 295° |
| 2026-04-30 09:22 | 53.32533 | -0.09717 | 20365 ft | 360 kts | 295° |
| 2026-04-30 09:22 | 53.33649 | -0.13460 | 20127 ft | 359 kts | 295° |
| 2026-04-30 09:22 | 53.34755 | -0.17213 | 19890 ft | 359 kts | 294° |
| 2026-04-30 09:23 | 53.35851 | -0.20965 | 19657 ft | 359 kts | 294° |
| 2026-04-30 09:23 | 53.36934 | -0.24691 | 19433 ft | 359 kts | 294° |
| 2026-04-30 09:23 | 53.38029 | -0.28470 | 19197 ft | 359 kts | 294° |
| 2026-04-30 09:23 | 53.39120 | -0.32244 | 18959 ft | 359 kts | 294° |
| 2026-04-30 09:24 | 53.40205 | -0.36001 | 18728 ft | 358 kts | 294° |
| 2026-04-30 09:24 | 53.41289 | -0.39761 | 18480 ft | 357 kts | 294° |
| 2026-04-30 09:24 | 53.42369 | -0.43509 | 18208 ft | 356 kts | 294° |
| 2026-04-30 09:24 | 53.43445 | -0.47246 | 17943 ft | 355 kts | 294° |
| 2026-04-30 09:25 | 53.44506 | -0.50934 | 17687 ft | 354 kts | 294° |
| 2026-04-30 09:25 | 53.45570 | -0.54645 | 17426 ft | 353 kts | 294° |
| 2026-04-30 09:25 | 53.46633 | -0.58358 | 17170 ft | 351 kts | 294° |
| 2026-04-30 09:25 | 53.47688 | -0.62051 | 16916 ft | 350 kts | 293° |
| 2026-04-30 09:26 | 53.48736 | -0.65734 | 16658 ft | 349 kts | 293° |
| 2026-04-30 09:26 | 53.49785 | -0.69423 | 16406 ft | 348 kts | 293° |
| 2026-04-30 09:26 | 53.50828 | -0.73094 | 16160 ft | 347 kts | 293° |
| 2026-04-30 09:26 | 53.51852 | -0.76703 | 15911 ft | 346 kts | 293° |
| 2026-04-30 09:27 | 53.52884 | -0.80346 | 15664 ft | 345 kts | 293° |
| 2026-04-30 09:27 | 53.53918 | -0.83984 | 15421 ft | 344 kts | 293° |
| 2026-04-30 09:27 | 53.54949 | -0.87607 | 15175 ft | 344 kts | 293° |
| 2026-04-30 09:27 | 53.55982 | -0.91244 | 14933 ft | 343 kts | 293° |
| 2026-04-30 09:28 | 53.57003 | -0.94846 | 14688 ft | 339 kts | 293° |
| 2026-04-30 09:28 | 53.58018 | -0.98428 | 14452 ft | 338 kts | 293° |
| 2026-04-30 09:28 | 53.59017 | -1.01967 | 14228 ft | 338 kts | 293° |
| 2026-04-30 09:28 | 53.60027 | -1.05550 | 13982 ft | 338 kts | 293° |
| 2026-04-30 09:29 | 53.61115 | -1.09056 | 13714 ft | 340 kts | 301° |
| 2026-04-30 09:29 | 53.62504 | -1.12291 | 13460 ft | 341 kts | 306° |
| 2026-04-30 09:29 | 53.63958 | -1.15448 | 13201 ft | 340 kts | 307° |
| 2026-04-30 09:29 | 53.65412 | -1.18572 | 12937 ft | 337 kts | 307° |
| 2026-04-30 09:30 | 53.66848 | -1.21675 | 12674 ft | 333 kts | 306° |
| 2026-04-30 09:30 | 53.68260 | -1.24750 | 12428 ft | 332 kts | 306° |
| 2026-04-30 09:30 | 53.69672 | -1.27844 | 12184 ft | 333 kts | 306° |
| 2026-04-30 09:30 | 53.71083 | -1.30951 | 11936 ft | 334 kts | 306° |
| 2026-04-30 09:31 | 53.72495 | -1.34073 | 11693 ft | 335 kts | 306° |
| 2026-04-30 09:31 | 53.73903 | -1.37191 | 11425 ft | 332 kts | 306° |
| 2026-04-30 09:31 | 53.75294 | -1.40274 | 11185 ft | 328 kts | 306° |
| 2026-04-30 09:31 | 53.76665 | -1.43321 | 10940 ft | 325 kts | 306° |
| 2026-04-30 09:32 | 53.78029 | -1.46356 | 10699 ft | 322 kts | 306° |
| 2026-04-30 09:32 | 53.79365 | -1.49332 | 10464 ft | 320 kts | 306° |
| 2026-04-30 09:32 | 53.80706 | -1.52323 | 10223 ft | 318 kts | 306° |
| 2026-04-30 09:32 | 53.82044 | -1.55308 | 9961 ft | 316 kts | 306° |
| 2026-04-30 09:33 | 53.83369 | -1.58272 | 9698 ft | 315 kts | 305° |
| 2026-04-30 09:33 | 53.84693 | -1.61234 | 9446 ft | 314 kts | 306° |
| 2026-04-30 09:33 | 53.85995 | -1.64133 | 9180 ft | 314 kts | 308° |
| 2026-04-30 09:33 | 53.87665 | -1.66495 | 8904 ft | 313 kts | 333° |
| 2026-04-30 09:34 | 53.89606 | -1.68152 | 8672 ft | 311 kts | 335° |
| 2026-04-30 09:34 | 53.91543 | -1.69750 | 8433 ft | 311 kts | 335° |
| 2026-04-30 09:34 | 53.93497 | -1.71378 | 8177 ft | 311 kts | 335° |
| 2026-04-30 09:34 | 53.95444 | -1.73030 | 7931 ft | 312 kts | 335° |
| 2026-04-30 09:35 | 53.97384 | -1.74698 | 7684 ft | 312 kts | 334° |
| 2026-04-30 09:35 | 53.99281 | -1.76341 | 7456 ft | 310 kts | 334° |
| 2026-04-30 09:35 | 54.01203 | -1.78039 | 7197 ft | 310 kts | 329° |
| 2026-04-30 09:35 | 54.02711 | -1.80601 | 6922 ft | 309 kts | 295° |
| 2026-04-30 09:36 | 54.03232 | -1.84032 | 6675 ft | 293 kts | 261° |
| 2026-04-30 09:36 | 54.02648 | -1.87187 | 6448 ft | 274 kts | 227° |
| 2026-04-30 09:36 | 54.01236 | -1.89110 | 6205 ft | 255 kts | 193° |
| 2026-04-30 09:36 | 53.99539 | -1.89214 | 5957 ft | 241 kts | 158° |
| 2026-04-30 09:37 | 53.98235 | -1.87553 | 5713 ft | 239 kts | 123° |
| 2026-04-30 09:37 | 53.97825 | -1.84814 | 5462 ft | 249 kts | 91° |
| 2026-04-30 09:37 | 53.97856 | -1.81917 | 5171 ft | 241 kts | 109° |
| 2026-04-30 09:37 | 53.96977 | -1.79606 | 4956 ft | 235 kts | 141° |
| 2026-04-30 09:38 | 53.95658 | -1.78002 | 4714 ft | 237 kts | 142° |
| 2026-04-30 09:38 | 53.94332 | -1.76334 | 4441 ft | 238 kts | 147° |
| 2026-04-30 09:38 | 53.92928 | -1.74896 | 4216 ft | 232 kts | 145° |
| 2026-04-30 09:38 | 53.91583 | -1.73445 | 3441 ft | 232 kts | 146° |
| 2026-04-30 09:39 | 53.90228 | -1.71865 | 2324 ft | 241 kts | 140° |
| 2026-04-30 09:39 | 53.88944 | -1.70069 | 1648 ft | 231 kts | 135° |
| 2026-04-30 09:39 | 53.87874 | -1.68141 | 985 ft | 223 kts | 131° |
| 2026-04-30 09:39 | 53.86792 | -1.66390 | 666 ft | 196 kts | 144° |
| 2026-04-30 09:40 | 53.86098 | -1.65300 | 678 ft | 76 kts | 137° |
| 2026-04-30 09:40 | 53.85956 | -1.65080 | 669 ft | 8 kts | 137° |
| 2026-04-30 09:40 | 53.85953 | -1.65076 | 669 ft | 0 kts | 137° |
| 2026-04-30 09:41 | 53.85952 | -1.65073 | 669 ft | 1 kts | 137° |
| 2026-04-30 09:41 | 53.85911 | -1.64950 | 664 ft | 17 kts | 109° |
| 2026-04-30 09:41 | 53.85881 | -1.64915 | 663 ft | 0 kts | 211° |
| 2026-04-30 09:41 | 53.85880 | -1.64921 | 663 ft | 2 kts | 239° |
| 2026-04-30 09:42 | 53.85917 | -1.65043 | 665 ft | 16 kts | 323° |
| 2026-04-30 09:42 | 53.86007 | -1.65162 | 673 ft | 16 kts | 319° |
| 2026-04-30 09:42 | 53.86086 | -1.65282 | 677 ft | 13 kts | 318° |
| 2026-04-30 09:42 | 53.86145 | -1.65372 | 679 ft | 10 kts | 318° |
| 2026-04-30 09:43 | 53.86198 | -1.65446 | 679 ft | 11 kts | 327° |
| 2026-04-30 09:43 | 53.86276 | -1.65462 | 678 ft | 13 kts | 3° |
| 2026-04-30 09:43 | 53.86380 | -1.65451 | 676 ft | 18 kts | 4° |
| 2026-04-30 09:43 | 53.86534 | -1.65437 | 667 ft | 26 kts | 3° |
| 2026-04-30 09:44 | 53.86715 | -1.65427 | 660 ft | 20 kts | 344° |
| 2026-04-30 09:44 | 53.86739 | -1.65508 | 662 ft | 6 kts | 273° |
| 2026-04-30 09:44 | 53.86739 | -1.65586 | 664 ft | 8 kts | 270° |
| 2026-04-30 09:44 | 53.86748 | -1.65703 | 664 ft | 13 kts | 294° |
| 2026-04-30 09:45 | 53.86803 | -1.65777 | 664 ft | 8 kts | 313° |
| 2026-04-30 09:45 | 53.86806 | -1.65789 | 664 ft | 0 kts | 297° |
| 2026-04-30 09:45 | 53.86810 | -1.65803 | 664 ft | 8 kts | 292° |
| 2026-04-30 09:45 | 53.86833 | -1.65831 | 664 ft | 0 kts | 354° |
| 2026-04-30 09:46 | 53.86834 | -1.65831 | 664 ft | 1 kts | 357° |
| 2026-04-30 09:46 | 53.86842 | -1.65831 | 664 ft | 0 kts | 359° |
| 2026-04-30 09:46 | 53.86845 | -1.65831 | 664 ft | 2 kts | 359° |
| 2026-04-30 09:46 | 53.86858 | -1.65831 | 664 ft | 3 kts | 0° |
| 2026-04-30 09:47 | 53.86868 | -1.65831 | 664 ft | 1 kts | 1° |
| 2026-04-30 09:47 | 53.86872 | -1.65831 | 664 ft | 0 kts | 1° |
| 2026-04-30 09:47 | 53.86875 | -1.65831 | 664 ft | 1 kts | 1° |
| 2026-04-30 09:47 | 53.86876 | -1.65831 | 664 ft | 0 kts | 1° |